sensor_id;sensor_type;location;lat;lon;timestamp;P1;durP1;ratioP1;P2;durP2;ratioP2
55813;SDS011;65494;42.818;0.404;2023-02-04T00:00:16;17.20;;;6.85;;
55813;SDS011;65494;42.818;0.404;2023-02-04T00:02:43;19.63;;;8.15;;
55813;SDS011;65494;42.818;0.404;2023-02-04T00:05:09;17.98;;;6.97;;
55813;SDS011;65494;42.818;0.404;2023-02-04T00:07:36;16.38;;;6.13;;
55813;SDS011;65494;42.818;0.404;2023-02-04T00:10:02;10.23;;;3.97;;
55813;SDS011;65494;42.818;0.404;2023-02-04T00:12:30;9.65;;;3.50;;
55813;SDS011;65494;42.818;0.404;2023-02-04T00:14:57;18.55;;;7.10;;
55813;SDS011;65494;42.818;0.404;2023-02-04T00:17:23;20.27;;;6.68;;
55813;SDS011;65494;42.818;0.404;2023-02-04T00:19:49;15.10;;;5.30;;
55813;SDS011;65494;42.818;0.404;2023-02-04T00:22:16;20.05;;;7.90;;
55813;SDS011;65494;42.818;0.404;2023-02-04T00:24:43;22.50;;;7.43;;
55813;SDS011;65494;42.818;0.404;2023-02-04T00:27:17;12.82;;;5.10;;
55813;SDS011;65494;42.818;0.404;2023-02-04T00:29:43;8.32;;;3.88;;
55813;SDS011;65494;42.818;0.404;2023-02-04T00:32:11;10.50;;;3.38;;
55813;SDS011;65494;42.818;0.404;2023-02-04T00:34:37;7.07;;;2.65;;
55813;SDS011;65494;42.818;0.404;2023-02-04T00:37:04;3.13;;;1.90;;
55813;SDS011;65494;42.818;0.404;2023-02-04T00:39:33;7.55;;;2.97;;
55813;SDS011;65494;42.818;0.404;2023-02-04T00:42:08;9.30;;;3.65;;
55813;SDS011;65494;42.818;0.404;2023-02-04T00:44:36;11.20;;;4.57;;
55813;SDS011;65494;42.818;0.404;2023-02-04T00:47:02;4.65;;;1.60;;
55813;SDS011;65494;42.818;0.404;2023-02-04T00:49:33;1.90;;;1.25;;
55813;SDS011;65494;42.818;0.404;2023-02-04T00:51:59;1.08;;;0.77;;
55813;SDS011;65494;42.818;0.404;2023-02-04T00:54:26;1.45;;;0.80;;
55813;SDS011;65494;42.818;0.404;2023-02-04T00:56:52;3.78;;;1.88;;
55813;SDS011;65494;42.818;0.404;2023-02-04T00:59:21;10.80;;;4.70;;
55813;SDS011;65494;42.818;0.404;2023-02-04T01:01:50;16.45;;;5.75;;
55813;SDS011;65494;42.818;0.404;2023-02-04T01:04:16;19.17;;;8.40;;
55813;SDS011;65494;42.818;0.404;2023-02-04T01:06:43;22.60;;;8.70;;
55813;SDS011;65494;42.818;0.404;2023-02-04T01:09:30;20.65;;;7.55;;
55813;SDS011;65494;42.818;0.404;2023-02-04T01:11:56;22.13;;;8.20;;
55813;SDS011;65494;42.818;0.404;2023-02-04T01:14:24;17.13;;;7.10;;
55813;SDS011;65494;42.818;0.404;2023-02-04T01:16:51;17.00;;;6.38;;
55813;SDS011;65494;42.818;0.404;2023-02-04T01:19:39;12.15;;;4.78;;
55813;SDS011;65494;42.818;0.404;2023-02-04T01:22:10;15.18;;;5.90;;
55813;SDS011;65494;42.818;0.404;2023-02-04T01:24:45;18.10;;;6.97;;
55813;SDS011;65494;42.818;0.404;2023-02-04T01:27:16;14.20;;;5.47;;
55813;SDS011;65494;42.818;0.404;2023-02-04T01:29:42;7.03;;;3.15;;
55813;SDS011;65494;42.818;0.404;2023-02-04T01:32:09;5.32;;;2.28;;
55813;SDS011;65494;42.818;0.404;2023-02-04T01:34:35;15.52;;;4.95;;
55813;SDS011;65494;42.818;0.404;2023-02-04T01:37:01;20.25;;;6.60;;
55813;SDS011;65494;42.818;0.404;2023-02-04T01:39:37;16.08;;;6.38;;
55813;SDS011;65494;42.818;0.404;2023-02-04T01:42:03;12.38;;;5.07;;
55813;SDS011;65494;42.818;0.404;2023-02-04T01:44:30;9.27;;;3.22;;
55813;SDS011;65494;42.818;0.404;2023-02-04T01:46:56;13.43;;;4.63;;
55813;SDS011;65494;42.818;0.404;2023-02-04T01:49:23;7.05;;;2.72;;
55813;SDS011;65494;42.818;0.404;2023-02-04T01:51:51;6.32;;;2.20;;
55813;SDS011;65494;42.818;0.404;2023-02-04T01:54:18;4.03;;;1.98;;
55813;SDS011;65494;42.818;0.404;2023-02-04T01:56:45;5.18;;;2.45;;
55813;SDS011;65494;42.818;0.404;2023-02-04T01:59:15;10.43;;;3.95;;
55813;SDS011;65494;42.818;0.404;2023-02-04T02:01:49;9.45;;;3.97;;
55813;SDS011;65494;42.818;0.404;2023-02-04T02:04:23;9.50;;;3.30;;
55813;SDS011;65494;42.818;0.404;2023-02-04T02:06:52;6.88;;;2.42;;
55813;SDS011;65494;42.818;0.404;2023-02-04T02:09:23;2.88;;;1.40;;
55813;SDS011;65494;42.818;0.404;2023-02-04T02:11:50;3.15;;;1.73;;
55813;SDS011;65494;42.818;0.404;2023-02-04T02:14:17;5.65;;;2.20;;
55813;SDS011;65494;42.818;0.404;2023-02-04T02:16:43;5.75;;;2.40;;
55813;SDS011;65494;42.818;0.404;2023-02-04T02:19:11;3.67;;;1.90;;
55813;SDS011;65494;42.818;0.404;2023-02-04T02:21:52;1.85;;;1.27;;
55813;SDS011;65494;42.818;0.404;2023-02-04T02:26:49;4.60;;;2.05;;
55813;SDS011;65494;42.818;0.404;2023-02-04T02:29:17;4.05;;;1.58;;
55813;SDS011;65494;42.818;0.404;2023-02-04T02:31:44;7.55;;;3.45;;
55813;SDS011;65494;42.818;0.404;2023-02-04T02:34:11;8.88;;;3.30;;
55813;SDS011;65494;42.818;0.404;2023-02-04T02:36:38;9.02;;;4.28;;
55813;SDS011;65494;42.818;0.404;2023-02-04T02:39:04;9.88;;;3.45;;
55813;SDS011;65494;42.818;0.404;2023-02-04T02:41:30;8.45;;;2.80;;
55813;SDS011;65494;42.818;0.404;2023-02-04T02:43:56;6.50;;;2.55;;
55813;SDS011;65494;42.818;0.404;2023-02-04T02:46:22;6.20;;;2.50;;
55813;SDS011;65494;42.818;0.404;2023-02-04T02:48:48;4.10;;;1.65;;
55813;SDS011;65494;42.818;0.404;2023-02-04T02:51:14;5.25;;;2.00;;
55813;SDS011;65494;42.818;0.404;2023-02-04T02:53:40;7.82;;;3.40;;
55813;SDS011;65494;42.818;0.404;2023-02-04T02:56:07;7.70;;;3.50;;
55813;SDS011;65494;42.818;0.404;2023-02-04T02:58:34;7.25;;;3.30;;
55813;SDS011;65494;42.818;0.404;2023-02-04T03:01:01;10.88;;;4.03;;
55813;SDS011;65494;42.818;0.404;2023-02-04T03:03:32;7.75;;;3.58;;
55813;SDS011;65494;42.818;0.404;2023-02-04T03:05:59;10.82;;;3.95;;
55813;SDS011;65494;42.818;0.404;2023-02-04T03:08:26;10.57;;;3.50;;
55813;SDS011;65494;42.818;0.404;2023-02-04T03:10:53;7.28;;;2.65;;
55813;SDS011;65494;42.818;0.404;2023-02-04T03:13:19;4.18;;;2.10;;
55813;SDS011;65494;42.818;0.404;2023-02-04T03:15:46;4.00;;;1.55;;
55813;SDS011;65494;42.818;0.404;2023-02-04T03:18:13;6.43;;;2.20;;
55813;SDS011;65494;42.818;0.404;2023-02-04T03:20:40;5.38;;;2.35;;
55813;SDS011;65494;42.818;0.404;2023-02-04T03:23:07;5.80;;;2.58;;
55813;SDS011;65494;42.818;0.404;2023-02-04T03:25:33;7.35;;;2.97;;
55813;SDS011;65494;42.818;0.404;2023-02-04T03:27:59;4.45;;;1.90;;
55813;SDS011;65494;42.818;0.404;2023-02-04T03:30:26;5.78;;;1.77;;
55813;SDS011;65494;42.818;0.404;2023-02-04T03:32:52;12.95;;;4.88;;
55813;SDS011;65494;42.818;0.404;2023-02-04T03:35:19;11.73;;;4.40;;
55813;SDS011;65494;42.818;0.404;2023-02-04T03:37:45;12.93;;;4.85;;
55813;SDS011;65494;42.818;0.404;2023-02-04T03:40:17;13.02;;;3.67;;
55813;SDS011;65494;42.818;0.404;2023-02-04T03:42:43;8.40;;;3.58;;
55813;SDS011;65494;42.818;0.404;2023-02-04T03:45:09;8.88;;;3.78;;
55813;SDS011;65494;42.818;0.404;2023-02-04T03:47:36;9.73;;;3.78;;
55813;SDS011;65494;42.818;0.404;2023-02-04T03:50:02;8.95;;;3.72;;
55813;SDS011;65494;42.818;0.404;2023-02-04T03:52:28;10.43;;;3.22;;
55813;SDS011;65494;42.818;0.404;2023-02-04T03:54:54;11.50;;;4.63;;
55813;SDS011;65494;42.818;0.404;2023-02-04T03:57:36;9.02;;;3.47;;
55813;SDS011;65494;42.818;0.404;2023-02-04T04:00:12;11.73;;;4.82;;
55813;SDS011;65494;42.818;0.404;2023-02-04T04:02:39;15.63;;;5.13;;
55813;SDS011;65494;42.818;0.404;2023-02-04T04:05:08;10.38;;;4.55;;
55813;SDS011;65494;42.818;0.404;2023-02-04T04:07:54;13.18;;;4.72;;
55813;SDS011;65494;42.818;0.404;2023-02-04T04:10:26;18.42;;;5.93;;
55813;SDS011;65494;42.818;0.404;2023-02-04T04:12:53;20.05;;;6.53;;
55813;SDS011;65494;42.818;0.404;2023-02-04T04:15:20;19.15;;;6.93;;
55813;SDS011;65494;42.818;0.404;2023-02-04T04:17:47;17.90;;;5.88;;
55813;SDS011;65494;42.818;0.404;2023-02-04T04:20:16;15.70;;;5.80;;
55813;SDS011;65494;42.818;0.404;2023-02-04T04:22:43;16.10;;;4.88;;
55813;SDS011;65494;42.818;0.404;2023-02-04T04:25:20;16.15;;;5.53;;
55813;SDS011;65494;42.818;0.404;2023-02-04T04:27:46;14.00;;;5.07;;
55813;SDS011;65494;42.818;0.404;2023-02-04T04:30:13;13.40;;;4.65;;
55813;SDS011;65494;42.818;0.404;2023-02-04T04:32:40;6.95;;;2.58;;
55813;SDS011;65494;42.818;0.404;2023-02-04T04:35:06;2.38;;;0.90;;
55813;SDS011;65494;42.818;0.404;2023-02-04T04:37:32;1.75;;;0.90;;
55813;SDS011;65494;42.818;0.404;2023-02-04T04:39:59;0.85;;;0.80;;
55813;SDS011;65494;42.818;0.404;2023-02-04T04:42:26;3.60;;;1.15;;
55813;SDS011;65494;42.818;0.404;2023-02-04T04:44:52;2.30;;;1.20;;
55813;SDS011;65494;42.818;0.404;2023-02-04T04:47:18;0.77;;;0.77;;
55813;SDS011;65494;42.818;0.404;2023-02-04T04:49:44;0.60;;;0.60;;
55813;SDS011;65494;42.818;0.404;2023-02-04T04:52:11;1.13;;;1.00;;
55813;SDS011;65494;42.818;0.404;2023-02-04T04:54:37;6.20;;;1.90;;
55813;SDS011;65494;42.818;0.404;2023-02-04T04:57:03;6.40;;;2.50;;
55813;SDS011;65494;42.818;0.404;2023-02-04T04:59:29;6.18;;;2.50;;
55813;SDS011;65494;42.818;0.404;2023-02-04T05:01:55;5.60;;;2.45;;
55813;SDS011;65494;42.818;0.404;2023-02-04T05:04:21;7.15;;;2.70;;
55813;SDS011;65494;42.818;0.404;2023-02-04T05:06:48;5.72;;;1.83;;
55813;SDS011;65494;42.818;0.404;2023-02-04T05:09:14;1.75;;;1.15;;
55813;SDS011;65494;42.818;0.404;2023-02-04T05:11:41;1.17;;;0.90;;
55813;SDS011;65494;42.818;0.404;2023-02-04T05:14:07;2.25;;;1.17;;
55813;SDS011;65494;42.818;0.404;2023-02-04T05:16:36;4.57;;;1.65;;
55813;SDS011;65494;42.818;0.404;2023-02-04T05:19:02;3.17;;;1.63;;
55813;SDS011;65494;42.818;0.404;2023-02-04T05:21:28;2.78;;;1.42;;
55813;SDS011;65494;42.818;0.404;2023-02-04T05:23:54;4.28;;;1.70;;
55813;SDS011;65494;42.818;0.404;2023-02-04T05:26:21;7.05;;;2.08;;
55813;SDS011;65494;42.818;0.404;2023-02-04T05:28:48;5.63;;;2.10;;
55813;SDS011;65494;42.818;0.404;2023-02-04T05:31:14;6.70;;;1.70;;
55813;SDS011;65494;42.818;0.404;2023-02-04T05:33:41;3.25;;;1.75;;
55813;SDS011;65494;42.818;0.404;2023-02-04T05:36:07;4.03;;;1.80;;
55813;SDS011;65494;42.818;0.404;2023-02-04T05:38:33;3.13;;;1.40;;
55813;SDS011;65494;42.818;0.404;2023-02-04T05:40:59;2.25;;;1.35;;
55813;SDS011;65494;42.818;0.404;2023-02-04T05:43:25;1.65;;;1.13;;
55813;SDS011;65494;42.818;0.404;2023-02-04T05:45:54;1.48;;;1.00;;
55813;SDS011;65494;42.818;0.404;2023-02-04T05:48:41;0.88;;;0.80;;
55813;SDS011;65494;42.818;0.404;2023-02-04T05:51:49;9.60;;;2.50;;
55813;SDS011;65494;42.818;0.404;2023-02-04T05:54:30;5.22;;;2.10;;
55813;SDS011;65494;42.818;0.404;2023-02-04T05:57:26;6.15;;;2.08;;
55813;SDS011;65494;42.818;0.404;2023-02-04T08:43:02;7.88;;;3.63;;
55813;SDS011;65494;42.818;0.404;2023-02-04T08:45:29;11.63;;;4.10;;
55813;SDS011;65494;42.818;0.404;2023-02-04T08:47:55;11.30;;;4.47;;
55813;SDS011;65494;42.818;0.404;2023-02-04T08:50:21;8.20;;;3.70;;
55813;SDS011;65494;42.818;0.404;2023-02-04T08:52:47;10.18;;;4.05;;
55813;SDS011;65494;42.818;0.404;2023-02-04T08:55:13;13.13;;;5.00;;
55813;SDS011;65494;42.818;0.404;2023-02-04T08:57:57;8.50;;;4.53;;
55813;SDS011;65494;42.818;0.404;2023-02-04T09:00:23;8.25;;;4.20;;
55813;SDS011;65494;42.818;0.404;2023-02-04T09:02:49;7.85;;;3.78;;
55813;SDS011;65494;42.818;0.404;2023-02-04T09:05:15;7.82;;;3.80;;
55813;SDS011;65494;42.818;0.404;2023-02-04T09:07:41;8.43;;;3.75;;
55813;SDS011;65494;42.818;0.404;2023-02-04T09:10:07;9.90;;;4.05;;
55813;SDS011;65494;42.818;0.404;2023-02-04T09:12:34;14.00;;;4.55;;
55813;SDS011;65494;42.818;0.404;2023-02-04T09:15:00;12.35;;;5.22;;
55813;SDS011;65494;42.818;0.404;2023-02-04T09:17:26;12.45;;;5.47;;
55813;SDS011;65494;42.818;0.404;2023-02-04T09:22:21;12.43;;;5.00;;
55813;SDS011;65494;42.818;0.404;2023-02-04T09:24:47;12.05;;;4.95;;
55813;SDS011;65494;42.818;0.404;2023-02-04T09:27:13;10.98;;;5.70;;
55813;SDS011;65494;42.818;0.404;2023-02-04T09:29:39;13.13;;;6.25;;
55813;SDS011;65494;42.818;0.404;2023-02-04T09:32:05;14.02;;;6.05;;
55813;SDS011;65494;42.818;0.404;2023-02-04T09:34:31;14.63;;;6.65;;
55813;SDS011;65494;42.818;0.404;2023-02-04T09:36:57;13.07;;;5.70;;
55813;SDS011;65494;42.818;0.404;2023-02-04T09:39:23;10.50;;;6.15;;
55813;SDS011;65494;42.818;0.404;2023-02-04T09:41:49;10.77;;;5.18;;
55813;SDS011;65494;42.818;0.404;2023-02-04T09:44:19;9.23;;;5.25;;
55813;SDS011;65494;42.818;0.404;2023-02-04T09:46:49;9.02;;;4.03;;
55813;SDS011;65494;42.818;0.404;2023-02-04T09:49:15;6.57;;;3.15;;
55813;SDS011;65494;42.818;0.404;2023-02-04T09:51:42;7.65;;;3.45;;
55813;SDS011;65494;42.818;0.404;2023-02-04T09:54:18;4.78;;;2.30;;
55813;SDS011;65494;42.818;0.404;2023-02-04T09:56:45;7.05;;;2.75;;
55813;SDS011;65494;42.818;0.404;2023-02-04T09:59:18;10.07;;;3.40;;
55813;SDS011;65494;42.818;0.404;2023-02-04T10:01:56;8.43;;;4.05;;
55813;SDS011;65494;42.818;0.404;2023-02-04T10:04:24;7.72;;;3.63;;
55813;SDS011;65494;42.818;0.404;2023-02-04T10:06:50;6.40;;;3.10;;
55813;SDS011;65494;42.818;0.404;2023-02-04T10:09:16;11.57;;;3.30;;
55813;SDS011;65494;42.818;0.404;2023-02-04T10:11:43;10.63;;;3.40;;
55813;SDS011;65494;42.818;0.404;2023-02-04T10:14:15;9.50;;;3.33;;
55813;SDS011;65494;42.818;0.404;2023-02-04T10:16:43;13.43;;;4.03;;
55813;SDS011;65494;42.818;0.404;2023-02-04T10:19:13;7.95;;;3.05;;
55813;SDS011;65494;42.818;0.404;2023-02-04T10:21:40;7.50;;;2.50;;
55813;SDS011;65494;42.818;0.404;2023-02-04T10:24:13;6.68;;;2.30;;
55813;SDS011;65494;42.818;0.404;2023-02-04T10:26:40;9.60;;;3.13;;
55813;SDS011;65494;42.818;0.404;2023-02-04T10:29:10;5.35;;;2.20;;
55813;SDS011;65494;42.818;0.404;2023-02-04T10:31:38;9.82;;;2.30;;
55813;SDS011;65494;42.818;0.404;2023-02-04T10:34:14;6.82;;;2.72;;
55813;SDS011;65494;42.818;0.404;2023-02-04T10:36:42;9.30;;;5.00;;
55813;SDS011;65494;42.818;0.404;2023-02-04T10:39:19;8.93;;;4.03;;
55813;SDS011;65494;42.818;0.404;2023-02-04T10:41:49;7.47;;;3.20;;
55813;SDS011;65494;42.818;0.404;2023-02-04T10:44:17;9.48;;;4.28;;
55813;SDS011;65494;42.818;0.404;2023-02-04T10:46:44;8.38;;;3.67;;
55813;SDS011;65494;42.818;0.404;2023-02-04T10:49:16;6.65;;;2.50;;
55813;SDS011;65494;42.818;0.404;2023-02-04T10:51:43;6.93;;;1.70;;
55813;SDS011;65494;42.818;0.404;2023-02-04T10:54:10;3.67;;;1.90;;
55813;SDS011;65494;42.818;0.404;2023-02-04T10:57:00;6.28;;;1.85;;
55813;SDS011;65494;42.818;0.404;2023-02-04T10:59:29;3.95;;;1.20;;
55813;SDS011;65494;42.818;0.404;2023-02-04T11:01:55;7.40;;;2.90;;
55813;SDS011;65494;42.818;0.404;2023-02-04T11:04:22;6.68;;;2.70;;
55813;SDS011;65494;42.818;0.404;2023-02-04T11:06:50;6.90;;;1.95;;
55813;SDS011;65494;42.818;0.404;2023-02-04T11:09:17;6.22;;;2.28;;
55813;SDS011;65494;42.818;0.404;2023-02-04T11:11:44;3.45;;;1.50;;
55813;SDS011;65494;42.818;0.404;2023-02-04T11:14:24;2.78;;;1.13;;
55813;SDS011;65494;42.818;0.404;2023-02-04T11:16:52;1.20;;;0.70;;
55813;SDS011;65494;42.818;0.404;2023-02-04T11:19:29;2.35;;;0.63;;
55813;SDS011;65494;42.818;0.404;2023-02-04T11:22:03;5.28;;;0.90;;
55813;SDS011;65494;42.818;0.404;2023-02-04T11:24:31;4.43;;;0.90;;
55813;SDS011;65494;42.818;0.404;2023-02-04T11:27:17;10.60;;;4.13;;
55813;SDS011;65494;42.818;0.404;2023-02-04T11:29:44;8.32;;;3.00;;
55813;SDS011;65494;42.818;0.404;2023-02-04T11:34:53;2.72;;;1.15;;
55813;SDS011;65494;42.818;0.404;2023-02-04T11:37:33;1.50;;;0.50;;
55813;SDS011;65494;42.818;0.404;2023-02-04T11:39:59;2.33;;;0.70;;
55813;SDS011;65494;42.818;0.404;2023-02-04T11:42:39;3.00;;;0.50;;
55813;SDS011;65494;42.818;0.404;2023-02-04T11:45:15;0.60;;;0.40;;
55813;SDS011;65494;42.818;0.404;2023-02-04T11:47:42;2.78;;;0.60;;
55813;SDS011;65494;42.818;0.404;2023-02-04T11:50:30;1.48;;;0.52;;
55813;SDS011;65494;42.818;0.404;2023-02-04T11:52:56;4.05;;;1.67;;
55813;SDS011;65494;42.818;0.404;2023-02-04T11:55:22;6.80;;;2.30;;
55813;SDS011;65494;42.818;0.404;2023-02-04T11:57:52;3.22;;;1.40;;
55813;SDS011;65494;42.818;0.404;2023-02-04T12:00:28;4.57;;;0.70;;
55813;SDS011;65494;42.818;0.404;2023-02-04T12:02:56;1.45;;;0.73;;
55813;SDS011;65494;42.818;0.404;2023-02-04T12:05:33;1.40;;;0.50;;
55813;SDS011;65494;42.818;0.404;2023-02-04T12:08:08;1.35;;;0.50;;
55813;SDS011;65494;42.818;0.404;2023-02-04T12:10:34;0.50;;;0.40;;
55813;SDS011;65494;42.818;0.404;2023-02-04T12:13:00;0.70;;;0.50;;
55813;SDS011;65494;42.818;0.404;2023-02-04T12:15:36;0.95;;;0.50;;
55813;SDS011;65494;42.818;0.404;2023-02-04T12:18:06;0.95;;;0.40;;
55813;SDS011;65494;42.818;0.404;2023-02-04T12:20:33;2.00;;;0.77;;
55813;SDS011;65494;42.818;0.404;2023-02-04T12:23:00;5.20;;;0.80;;
55813;SDS011;65494;42.818;0.404;2023-02-04T12:25:26;0.40;;;0.40;;
55813;SDS011;65494;42.818;0.404;2023-02-04T12:27:53;1.10;;;0.45;;
55813;SDS011;65494;42.818;0.404;2023-02-04T12:30:22;0.68;;;0.40;;
55813;SDS011;65494;42.818;0.404;2023-02-04T12:32:49;1.13;;;0.50;;
55813;SDS011;65494;42.818;0.404;2023-02-04T12:35:15;1.38;;;0.50;;
55813;SDS011;65494;42.818;0.404;2023-02-04T12:37:42;0.73;;;0.40;;
55813;SDS011;65494;42.818;0.404;2023-02-04T12:40:17;0.45;;;0.30;;
55813;SDS011;65494;42.818;0.404;2023-02-04T12:42:43;1.52;;;0.60;;
55813;SDS011;65494;42.818;0.404;2023-02-04T12:45:10;1.05;;;0.50;;
55813;SDS011;65494;42.818;0.404;2023-02-04T12:47:36;2.10;;;0.55;;
55813;SDS011;65494;42.818;0.404;2023-02-04T12:50:03;1.95;;;0.70;;
55813;SDS011;65494;42.818;0.404;2023-02-04T12:52:29;0.98;;;0.55;;
55813;SDS011;65494;42.818;0.404;2023-02-04T12:54:55;1.40;;;0.63;;
55813;SDS011;65494;42.818;0.404;2023-02-04T12:57:21;1.48;;;1.10;;
55813;SDS011;65494;42.818;0.404;2023-02-04T12:59:47;0.55;;;0.50;;
55813;SDS011;65494;42.818;0.404;2023-02-04T13:02:14;0.50;;;0.50;;
55813;SDS011;65494;42.818;0.404;2023-02-04T13:04:41;2.38;;;0.68;;
55813;SDS011;65494;42.818;0.404;2023-02-04T13:07:07;0.75;;;0.70;;
55813;SDS011;65494;42.818;0.404;2023-02-04T13:09:34;2.78;;;0.77;;
55813;SDS011;65494;42.818;0.404;2023-02-04T13:12:01;1.15;;;0.73;;
55813;SDS011;65494;42.818;0.404;2023-02-04T13:14:27;2.53;;;1.00;;
55813;SDS011;65494;42.818;0.404;2023-02-04T13:16:53;3.00;;;0.80;;
55813;SDS011;65494;42.818;0.404;2023-02-04T13:19:19;1.65;;;0.65;;
55813;SDS011;65494;42.818;0.404;2023-02-04T13:21:45;2.83;;;0.80;;
55813;SDS011;65494;42.818;0.404;2023-02-04T13:24:11;4.05;;;1.00;;
55813;SDS011;65494;42.818;0.404;2023-02-04T13:26:37;3.40;;;1.42;;
55813;SDS011;65494;42.818;0.404;2023-02-04T13:29:03;4.55;;;1.73;;
55813;SDS011;65494;42.818;0.404;2023-02-04T13:31:29;5.25;;;2.35;;
55813;SDS011;65494;42.818;0.404;2023-02-04T13:33:55;7.20;;;2.90;;
55813;SDS011;65494;42.818;0.404;2023-02-04T13:36:22;2.40;;;1.10;;
55813;SDS011;65494;42.818;0.404;2023-02-04T13:38:48;3.05;;;1.10;;
55813;SDS011;65494;42.818;0.404;2023-02-04T13:41:14;4.25;;;1.13;;
55813;SDS011;65494;42.818;0.404;2023-02-04T13:43:40;4.78;;;1.45;;
55813;SDS011;65494;42.818;0.404;2023-02-04T13:46:06;2.47;;;1.15;;
55813;SDS011;65494;42.818;0.404;2023-02-04T13:48:32;4.38;;;1.20;;
55813;SDS011;65494;42.818;0.404;2023-02-04T13:50:58;4.10;;;1.40;;
55813;SDS011;65494;42.818;0.404;2023-02-04T13:53:24;3.33;;;0.88;;
55813;SDS011;65494;42.818;0.404;2023-02-04T13:55:55;135.60;;;9.18;;
55813;SDS011;65494;42.818;0.404;2023-02-04T13:58:26;5.03;;;1.45;;
55813;SDS011;65494;42.818;0.404;2023-02-04T14:00:52;18.77;;;1.50;;
55813;SDS011;65494;42.818;0.404;2023-02-04T14:03:24;7.80;;;1.42;;
55813;SDS011;65494;42.818;0.404;2023-02-04T14:05:50;3.10;;;1.17;;
55813;SDS011;65494;42.818;0.404;2023-02-04T14:08:17;2.97;;;1.17;;
55813;SDS011;65494;42.818;0.404;2023-02-04T14:10:43;6.30;;;1.17;;
55813;SDS011;65494;42.818;0.404;2023-02-04T14:13:09;3.97;;;1.05;;
55813;SDS011;65494;42.818;0.404;2023-02-04T14:15:35;3.42;;;1.00;;
55813;SDS011;65494;42.818;0.404;2023-02-04T14:18:02;4.30;;;1.00;;
55813;SDS011;65494;42.818;0.404;2023-02-04T14:20:28;2.90;;;1.10;;
55813;SDS011;65494;42.818;0.404;2023-02-04T14:22:54;1.63;;;0.73;;
55813;SDS011;65494;42.818;0.404;2023-02-04T14:25:21;3.42;;;0.93;;
55813;SDS011;65494;42.818;0.404;2023-02-04T14:27:47;1.58;;;1.02;;
55813;SDS011;65494;42.818;0.404;2023-02-04T14:30:17;1.83;;;0.90;;
55813;SDS011;65494;42.818;0.404;2023-02-04T14:32:43;1.95;;;0.63;;
55813;SDS011;65494;42.818;0.404;2023-02-04T14:35:09;1.85;;;0.82;;
55813;SDS011;65494;42.818;0.404;2023-02-04T14:37:35;2.08;;;0.98;;
55813;SDS011;65494;42.818;0.404;2023-02-04T14:40:01;2.40;;;0.60;;
55813;SDS011;65494;42.818;0.404;2023-02-04T14:42:27;2.22;;;0.95;;
55813;SDS011;65494;42.818;0.404;2023-02-04T14:44:53;2.75;;;1.10;;
55813;SDS011;65494;42.818;0.404;2023-02-04T14:47:20;1.95;;;0.80;;
55813;SDS011;65494;42.818;0.404;2023-02-04T14:49:46;1.38;;;0.60;;
55813;SDS011;65494;42.818;0.404;2023-02-04T14:52:12;3.60;;;0.82;;
55813;SDS011;65494;42.818;0.404;2023-02-04T14:54:38;3.55;;;1.00;;
55813;SDS011;65494;42.818;0.404;2023-02-04T14:57:04;14.55;;;6.72;;
55813;SDS011;65494;42.818;0.404;2023-02-04T14:59:30;7.32;;;2.80;;
55813;SDS011;65494;42.818;0.404;2023-02-04T15:01:57;3.67;;;1.60;;
55813;SDS011;65494;42.818;0.404;2023-02-04T15:04:23;2.55;;;1.23;;
55813;SDS011;65494;42.818;0.404;2023-02-04T15:06:49;3.00;;;0.75;;
55813;SDS011;65494;42.818;0.404;2023-02-04T15:09:18;1.73;;;1.08;;
55813;SDS011;65494;42.818;0.404;2023-02-04T15:11:44;6.18;;;2.58;;
55813;SDS011;65494;42.818;0.404;2023-02-04T15:14:10;3.13;;;1.33;;
55813;SDS011;65494;42.818;0.404;2023-02-04T15:16:36;2.90;;;1.27;;
55813;SDS011;65494;42.818;0.404;2023-02-04T15:19:02;8.40;;;3.03;;
55813;SDS011;65494;42.818;0.404;2023-02-04T15:21:28;7.80;;;3.20;;
55813;SDS011;65494;42.818;0.404;2023-02-04T15:23:54;5.85;;;2.30;;
55813;SDS011;65494;42.818;0.404;2023-02-04T15:26:20;5.25;;;2.00;;
55813;SDS011;65494;42.818;0.404;2023-02-04T15:28:48;5.80;;;2.38;;
55813;SDS011;65494;42.818;0.404;2023-02-04T15:31:15;4.68;;;1.80;;
55813;SDS011;65494;42.818;0.404;2023-02-04T15:33:41;3.20;;;1.27;;
55813;SDS011;65494;42.818;0.404;2023-02-04T15:36:07;3.22;;;1.20;;
55813;SDS011;65494;42.818;0.404;2023-02-04T15:38:33;2.60;;;0.88;;
55813;SDS011;65494;42.818;0.404;2023-02-04T15:40:59;0.82;;;0.77;;
55813;SDS011;65494;42.818;0.404;2023-02-04T15:43:27;3.05;;;0.98;;
55813;SDS011;65494;42.818;0.404;2023-02-04T15:45:53;2.55;;;0.95;;
55813;SDS011;65494;42.818;0.404;2023-02-04T15:48:19;1.58;;;0.93;;
55813;SDS011;65494;42.818;0.404;2023-02-04T15:50:48;2.85;;;1.00;;
55813;SDS011;65494;42.818;0.404;2023-02-04T15:53:14;1.55;;;0.80;;
55813;SDS011;65494;42.818;0.404;2023-02-04T15:55:40;1.60;;;0.98;;
55813;SDS011;65494;42.818;0.404;2023-02-04T15:58:06;3.00;;;1.30;;
55813;SDS011;65494;42.818;0.404;2023-02-04T16:00:32;2.85;;;1.60;;
55813;SDS011;65494;42.818;0.404;2023-02-04T16:02:58;5.10;;;1.30;;
55813;SDS011;65494;42.818;0.404;2023-02-04T16:05:24;2.05;;;0.85;;
55813;SDS011;65494;42.818;0.404;2023-02-04T16:07:50;2.88;;;1.00;;
55813;SDS011;65494;42.818;0.404;2023-02-04T16:10:16;4.65;;;1.67;;
55813;SDS011;65494;42.818;0.404;2023-02-04T16:12:43;19.13;;;7.15;;
55813;SDS011;65494;42.818;0.404;2023-02-04T16:15:09;10.25;;;3.90;;
55813;SDS011;65494;42.818;0.404;2023-02-04T16:17:35;5.85;;;2.28;;
55813;SDS011;65494;42.818;0.404;2023-02-04T16:20:01;4.15;;;1.55;;
55813;SDS011;65494;42.818;0.404;2023-02-04T16:22:28;11.35;;;3.35;;
55813;SDS011;65494;42.818;0.404;2023-02-04T16:24:54;9.40;;;3.58;;
55813;SDS011;65494;42.818;0.404;2023-02-04T16:27:20;6.40;;;2.30;;
55813;SDS011;65494;42.818;0.404;2023-02-04T16:29:47;9.30;;;3.08;;
55813;SDS011;65494;42.818;0.404;2023-02-04T16:32:13;8.05;;;3.05;;
55813;SDS011;65494;42.818;0.404;2023-02-04T16:34:40;8.10;;;3.53;;
55813;SDS011;65494;42.818;0.404;2023-02-04T16:37:06;7.97;;;3.13;;
55813;SDS011;65494;42.818;0.404;2023-02-04T16:39:32;11.88;;;4.47;;
55813;SDS011;65494;42.818;0.404;2023-02-04T16:42:00;12.57;;;4.85;;
55813;SDS011;65494;42.818;0.404;2023-02-04T16:44:28;27.70;;;11.40;;
55813;SDS011;65494;42.818;0.404;2023-02-04T16:46:56;12.35;;;5.40;;
55813;SDS011;65494;42.818;0.404;2023-02-04T16:49:23;13.57;;;6.10;;
55813;SDS011;65494;42.818;0.404;2023-02-04T16:51:49;24.75;;;11.63;;
55813;SDS011;65494;42.818;0.404;2023-02-04T16:54:15;32.45;;;15.98;;
55813;SDS011;65494;42.818;0.404;2023-02-04T16:56:41;11.82;;;5.13;;
55813;SDS011;65494;42.818;0.404;2023-02-04T16:59:09;10.55;;;3.75;;
55813;SDS011;65494;42.818;0.404;2023-02-04T17:01:35;8.00;;;3.55;;
55813;SDS011;65494;42.818;0.404;2023-02-04T17:04:01;11.77;;;5.35;;
55813;SDS011;65494;42.818;0.404;2023-02-04T17:06:28;16.63;;;8.75;;
55813;SDS011;65494;42.818;0.404;2023-02-04T17:09:00;29.00;;;13.25;;
55813;SDS011;65494;42.818;0.404;2023-02-04T17:11:26;36.28;;;15.95;;
55813;SDS011;65494;42.818;0.404;2023-02-04T17:13:57;44.55;;;19.77;;
55813;SDS011;65494;42.818;0.404;2023-02-04T17:16:47;20.10;;;11.07;;
55813;SDS011;65494;42.818;0.404;2023-02-04T17:19:32;26.52;;;10.27;;
55813;SDS011;65494;42.818;0.404;2023-02-04T17:22:21;45.80;;;19.85;;
55813;SDS011;65494;42.818;0.404;2023-02-04T17:24:50;49.25;;;21.02;;
55813;SDS011;65494;42.818;0.404;2023-02-04T17:27:19;25.65;;;12.05;;
55813;SDS011;65494;42.818;0.404;2023-02-04T17:32:40;14.98;;;6.88;;
55813;SDS011;65494;42.818;0.404;2023-02-04T17:35:06;11.90;;;5.22;;
55813;SDS011;65494;42.818;0.404;2023-02-04T17:40:27;20.38;;;9.30;;
55813;SDS011;65494;42.818;0.404;2023-02-04T17:43:26;23.30;;;10.53;;
55813;SDS011;65494;42.818;0.404;2023-02-04T17:46:04;45.05;;;18.90;;